createdAt,value
2019-02-22T00:01:38.867Z,9.63
2019-02-22T00:04:09.929Z,9.47
2019-02-22T00:06:40.667Z,10.53
2019-02-22T00:09:11.693Z,9.93
2019-02-22T00:11:42.686Z,8.70
2019-02-22T00:14:13.343Z,10.43
2019-02-22T00:16:44.021Z,8.03
2019-02-22T00:19:14.917Z,8.63
2019-02-22T00:21:45.732Z,10.27
2019-02-22T00:24:16.001Z,10.27
2019-02-22T00:26:46.307Z,8.83
2019-02-22T00:29:16.536Z,10.97
2019-02-22T00:31:46.785Z,8.57
2019-02-22T00:34:16.957Z,10.13
2019-02-22T00:36:47.651Z,8.50
2019-02-22T00:39:17.806Z,8.87
2019-02-22T00:41:48.395Z,9.13
2019-02-22T00:44:18.690Z,8.27
2019-02-22T00:46:49.281Z,6.13
2019-02-22T00:49:19.518Z,9.63
2019-02-22T00:51:50.130Z,13.37
2019-02-22T00:54:21.028Z,9.73
2019-02-22T00:56:51.636Z,10.27
2019-02-22T00:59:21.935Z,10.37
2019-02-22T01:01:52.158Z,8.13
2019-02-22T01:04:22.490Z,8.40
2019-02-22T01:06:52.748Z,9.03
2019-02-22T01:09:23.026Z,12.43
2019-02-22T01:11:53.291Z,6.70
2019-02-22T01:14:23.556Z,5.53
2019-02-22T01:16:53.838Z,7.70
2019-02-22T01:19:24.140Z,8.00
2019-02-22T01:21:54.414Z,9.80
2019-02-22T01:24:24.634Z,7.63
2019-02-22T01:26:54.950Z,6.30
2019-02-22T01:29:25.100Z,9.70
2019-02-22T01:31:55.401Z,8.70
2019-02-22T01:34:25.554Z,9.60
2019-02-22T01:36:55.785Z,5.73
2019-02-22T01:39:25.978Z,11.30
2019-02-22T01:41:56.246Z,9.00
2019-02-22T01:44:26.474Z,10.97
2019-02-22T01:46:56.742Z,8.47
2019-02-22T01:49:27.085Z,10.77
2019-02-22T01:51:57.377Z,8.87
2019-02-22T01:54:28.169Z,7.43
2019-02-22T01:56:58.683Z,7.47
2019-02-22T01:59:28.914Z,9.03
2019-02-22T02:01:59.206Z,7.83
2019-02-22T02:04:29.516Z,9.83
2019-02-22T02:06:59.713Z,8.50
2019-02-22T02:09:30.802Z,10.47
2019-02-22T02:12:01.971Z,9.93
2019-02-22T02:14:32.549Z,7.73
2019-02-22T02:17:02.756Z,7.17
2019-02-22T02:19:33.226Z,7.43
2019-02-22T02:22:03.445Z,8.10
2019-02-22T02:24:33.711Z,7.67
2019-02-22T02:27:04.293Z,7.07
2019-02-22T02:29:34.567Z,6.97
2019-02-22T02:32:04.807Z,11.17
2019-02-22T02:34:35.106Z,6.97
2019-02-22T02:37:05.413Z,9.03
2019-02-22T02:39:35.669Z,11.00
2019-02-22T02:42:06.109Z,7.07
2019-02-22T02:44:36.334Z,11.60
2019-02-22T02:47:06.589Z,8.43
2019-02-22T02:49:37.211Z,6.63
2019-02-22T02:52:07.420Z,10.03
2019-02-22T02:54:37.647Z,8.87
2019-02-22T02:57:07.919Z,7.83
2019-02-22T02:59:38.145Z,8.83
2019-02-22T03:02:15.347Z,7.83
2019-02-22T03:04:45.642Z,9.87
2019-02-22T03:07:34.879Z,7.10
2019-02-22T03:10:07.445Z,8.33
2019-02-22T03:12:38.203Z,7.50
2019-02-22T03:15:10.356Z,8.87
2019-02-22T03:17:40.741Z,11.60
2019-02-22T03:20:11.334Z,10.07
2019-02-22T03:22:41.756Z,8.73
2019-02-22T03:25:12.437Z,8.10
2019-02-22T03:27:42.687Z,9.20
2019-02-22T03:30:13.448Z,12.27
2019-02-22T03:32:43.728Z,9.10
2019-02-22T03:35:14.803Z,10.23
2019-02-22T03:37:45.027Z,9.53
2019-02-22T03:40:15.551Z,8.83
2019-02-22T03:42:45.784Z,9.13
2019-02-22T03:45:16.923Z,10.27
2019-02-22T03:47:47.255Z,12.40
2019-02-22T03:50:18.490Z,9.43
2019-02-22T03:52:55.052Z,9.00
2019-02-22T03:55:25.379Z,9.97
2019-02-22T03:57:55.975Z,10.70
2019-02-22T04:00:26.216Z,5.87
2019-02-22T04:02:56.779Z,7.73
2019-02-22T04:05:27.062Z,7.80
2019-02-22T04:07:57.513Z,6.93
2019-02-22T04:10:27.890Z,8.83
2019-02-22T04:12:58.415Z,8.20
2019-02-22T04:15:28.825Z,9.63
2019-02-22T04:17:59.051Z,6.90
2019-02-22T04:20:29.419Z,11.43
2019-02-22T04:22:59.671Z,7.73
2019-02-22T04:25:29.946Z,5.93
2019-02-22T04:28:00.158Z,7.87
2019-02-22T04:30:30.427Z,7.57
2019-02-22T04:33:00.713Z,6.40
2019-02-22T04:35:31.069Z,7.30
2019-02-22T04:38:01.415Z,6.47
2019-02-22T04:40:31.819Z,6.90
2019-02-22T04:43:02.087Z,9.60
2019-02-22T04:45:32.441Z,4.67
2019-02-22T04:48:02.771Z,5.83
2019-02-22T04:50:33.061Z,6.90
2019-02-22T04:53:03.345Z,8.93
2019-02-22T04:55:33.577Z,9.60
2019-02-22T04:58:04.542Z,9.97
2019-02-22T05:00:34.781Z,7.20
2019-02-22T05:03:05.047Z,8.27
2019-02-22T05:05:36.063Z,12.07
2019-02-22T05:08:06.546Z,8.17
2019-02-22T05:10:36.865Z,12.57
2019-02-22T05:13:07.120Z,8.17
2019-02-22T05:15:37.388Z,8.20
2019-02-22T05:18:10.502Z,8.60
2019-02-22T05:20:40.754Z,12.13
2019-02-22T05:23:11.560Z,9.17
2019-02-22T05:25:41.948Z,10.57
2019-02-22T05:28:12.280Z,9.93
2019-02-22T05:30:42.526Z,9.00
2019-02-22T05:33:12.798Z,9.10
2019-02-22T05:35:43.038Z,12.07
2019-02-22T05:38:13.501Z,12.67
2019-02-22T05:40:43.877Z,8.43
2019-02-22T05:43:14.324Z,7.70
2019-02-22T05:45:44.700Z,7.17
2019-02-22T05:48:14.935Z,10.93
2019-02-22T05:50:45.227Z,9.93
2019-02-22T05:53:15.459Z,13.07
2019-02-22T05:55:45.824Z,11.87
2019-02-22T05:58:16.129Z,11.90
2019-02-22T06:00:46.419Z,9.77
2019-02-22T06:03:16.742Z,9.83
2019-02-22T06:05:47.584Z,11.03
2019-02-22T06:08:19.229Z,10.43
2019-02-22T06:10:49.487Z,9.20
2019-02-22T06:13:19.866Z,6.80
2019-02-22T06:15:50.165Z,9.63
2019-02-22T06:18:22.936Z,7.87
2019-02-22T06:20:52.308Z,12.80
2019-02-22T06:23:22.573Z,8.03
2019-02-22T06:25:52.922Z,18.00
2019-02-22T06:28:24.283Z,9.07
2019-02-22T06:30:54.567Z,7.60
2019-02-22T06:33:24.874Z,7.27
2019-02-22T06:35:55.120Z,7.37
2019-02-22T06:38:25.408Z,8.77
2019-02-22T06:40:55.635Z,8.53
2019-02-22T06:43:25.891Z,7.70
2019-02-22T06:45:56.131Z,8.07
2019-02-22T06:48:26.439Z,7.97
2019-02-22T06:50:56.680Z,9.77
2019-02-22T06:53:27.029Z,9.90
2019-02-22T06:55:57.355Z,10.10
2019-02-22T06:58:27.626Z,7.30
2019-02-22T07:00:57.871Z,9.50
2019-02-22T07:03:28.201Z,8.47
2019-02-22T07:05:58.467Z,9.47
2019-02-22T07:08:28.971Z,8.03
2019-02-22T07:11:25.596Z,6.97
2019-02-22T07:13:56.043Z,8.40
2019-02-22T07:16:26.318Z,8.50
2019-02-22T07:18:56.790Z,9.70
2019-02-22T07:21:27.069Z,9.90
2019-02-22T07:23:58.470Z,6.97
2019-02-22T07:26:28.947Z,11.13
2019-02-22T07:28:59.515Z,10.00
2019-02-22T07:31:29.799Z,12.53
2019-02-22T07:34:00.181Z,11.77
2019-02-22T07:36:30.584Z,9.40
2019-02-22T07:39:01.371Z,9.93
2019-02-22T07:41:33.325Z,9.57
2019-02-22T07:44:03.720Z,9.30
2019-02-22T07:46:33.979Z,8.20
2019-02-22T07:49:04.460Z,8.13
2019-02-22T07:51:35.037Z,8.17
2019-02-22T07:54:05.337Z,9.27
2019-02-22T07:56:35.658Z,7.50
2019-02-22T07:59:07.409Z,6.00
2019-02-22T08:01:46.942Z,8.90
2019-02-22T08:04:09.577Z,5.37
2019-02-22T08:06:42.438Z,3.97
2019-02-22T08:09:12.860Z,6.87
2019-02-22T08:11:43.157Z,3.73
2019-02-22T08:14:13.467Z,7.73
2019-02-22T08:16:43.786Z,4.60
2019-02-22T08:19:14.380Z,7.07
2019-02-22T08:21:44.895Z,7.43
2019-02-22T08:24:15.137Z,11.67
2019-02-22T08:26:47.573Z,5.17
2019-02-22T08:29:18.566Z,4.50
2019-02-22T08:31:48.893Z,7.83
2019-02-22T08:34:19.274Z,6.70
2019-02-22T08:36:49.562Z,7.83
2019-02-22T08:39:20.207Z,4.97
2019-02-22T08:41:50.551Z,6.77
2019-02-22T08:44:20.889Z,6.87
2019-02-22T08:46:51.190Z,5.83
2019-02-22T08:49:21.478Z,6.80
2019-02-22T08:51:51.829Z,6.40
2019-02-22T08:54:22.173Z,6.17
2019-02-22T08:56:52.418Z,5.63
2019-02-22T08:59:22.877Z,7.03
2019-02-22T09:01:54.119Z,6.30
2019-02-22T09:04:24.518Z,5.67
2019-02-22T09:06:54.827Z,5.33
2019-02-22T09:09:25.193Z,5.40
2019-02-22T09:11:57.728Z,6.03
2019-02-22T09:14:28.195Z,5.87
2019-02-22T09:16:58.513Z,6.80
2019-02-22T09:19:28.847Z,3.13
2019-02-22T09:21:59.106Z,6.07
2019-02-22T09:24:29.433Z,4.83
2019-02-22T09:26:59.940Z,8.27
2019-02-22T09:29:31.382Z,4.03
2019-02-22T09:32:02.090Z,6.30
2019-02-22T09:34:32.368Z,7.20
2019-02-22T09:37:02.714Z,5.73
2019-02-22T09:39:33.117Z,4.93
2019-02-22T09:42:03.404Z,7.13
2019-02-22T09:44:33.734Z,5.27
2019-02-22T09:47:04.059Z,5.37
2019-02-22T09:49:34.639Z,5.77
2019-02-22T09:52:04.924Z,7.40
2019-02-22T09:54:35.432Z,7.93
2019-02-22T09:57:06.043Z,6.43
2019-02-22T09:59:36.295Z,10.20
2019-02-22T10:02:06.782Z,12.27
2019-02-22T10:04:37.045Z,8.87
2019-02-22T10:07:07.807Z,7.37
2019-02-22T10:09:38.162Z,4.53
2019-02-22T10:12:08.562Z,7.57
2019-02-22T10:14:38.903Z,10.30
2019-02-22T10:17:09.148Z,5.17
2019-02-22T10:19:40.120Z,4.43
2019-02-22T10:22:10.360Z,6.13
2019-02-22T10:24:42.654Z,7.47
2019-02-22T10:27:12.883Z,5.93
2019-02-22T10:29:43.215Z,5.33
2019-02-22T10:32:15.891Z,7.00
2019-02-22T10:34:45.749Z,7.87
2019-02-22T10:37:16.041Z,10.73
2019-02-22T10:39:46.806Z,7.27
2019-02-22T10:42:17.173Z,9.77
2019-02-22T10:44:47.467Z,8.40
2019-02-22T10:47:17.793Z,5.73
2019-02-22T10:49:48.069Z,6.57
2019-02-22T10:52:18.535Z,6.73
2019-02-22T10:54:48.787Z,6.07
2019-02-22T10:57:19.110Z,6.60
2019-02-22T10:59:49.423Z,6.80
2019-02-22T11:02:19.699Z,11.20
2019-02-22T11:04:50.091Z,6.23
2019-02-22T11:07:20.461Z,6.43
2019-02-22T11:09:50.775Z,6.23
2019-02-22T11:12:21.537Z,7.17
2019-02-22T11:14:52.041Z,6.60
2019-02-22T11:17:22.417Z,8.57
2019-02-22T11:19:52.691Z,6.77
2019-02-22T11:22:23.109Z,5.87
2019-02-22T11:24:53.504Z,6.07
2019-02-22T11:27:23.999Z,8.00
2019-02-22T11:29:54.281Z,8.03
2019-02-22T11:32:25.211Z,3.90
2019-02-22T11:34:55.485Z,6.97
2019-02-22T11:40:09.643Z,4.87
2019-02-22T11:42:41.319Z,4.37
2019-02-22T11:45:11.786Z,10.13
2019-02-22T11:47:42.071Z,9.40
2019-02-22T11:50:12.428Z,10.13
2019-02-22T11:52:43.743Z,7.13
2019-02-22T11:55:14.520Z,5.20
2019-02-22T11:57:45.308Z,6.00
2019-02-22T12:00:17.963Z,10.17
2019-02-22T12:02:48.409Z,5.73
2019-02-22T12:05:19.189Z,8.67
2019-02-22T12:07:50.095Z,5.30
2019-02-22T12:10:20.617Z,9.43
2019-02-22T12:12:52.003Z,4.97
2019-02-22T12:15:22.744Z,8.27
2019-02-22T12:17:53.001Z,6.20
2019-02-22T12:20:24.380Z,3.77
2019-02-22T12:22:54.637Z,4.47
2019-02-22T12:25:24.928Z,5.10
2019-02-22T12:27:55.184Z,5.97
2019-02-22T12:30:25.888Z,7.90
2019-02-22T12:32:57.345Z,6.23
2019-02-22T12:35:32.840Z,4.27
2019-02-22T12:38:09.112Z,4.53
2019-02-22T12:40:40.174Z,6.33
2019-02-22T12:43:24.943Z,4.93
2019-02-22T12:45:56.940Z,4.27
2019-02-22T12:48:27.206Z,7.80
2019-02-22T12:53:44.688Z,7.17
2019-02-22T12:56:15.065Z,8.47
2019-02-22T12:58:45.866Z,7.87
2019-02-22T13:01:16.210Z,6.27
2019-02-22T13:03:46.492Z,5.50
2019-02-22T13:06:17.191Z,9.00
2019-02-22T13:08:47.453Z,7.50
2019-02-22T13:11:17.857Z,3.30
2019-02-22T13:13:48.150Z,4.93
2019-02-22T13:16:18.402Z,5.30
2019-02-22T13:18:48.915Z,4.03
2019-02-22T13:21:19.185Z,8.53
2019-02-22T13:26:31.264Z,4.93
2019-02-22T13:29:01.722Z,15.53
2019-02-22T13:31:32.030Z,6.13
2019-02-22T13:34:02.276Z,7.33
2019-02-22T13:36:33.380Z,7.03
2019-02-22T13:39:04.869Z,6.67
2019-02-22T13:41:37.346Z,4.67
2019-02-22T13:44:07.566Z,8.70
2019-02-22T13:46:38.056Z,9.27
2019-02-22T13:49:08.799Z,4.07
2019-02-22T13:51:39.297Z,6.50
2019-02-22T13:54:09.556Z,6.90
2019-02-22T13:56:40.147Z,9.07
2019-02-22T13:59:10.516Z,4.70
2019-02-22T14:01:40.796Z,6.03
2019-02-22T14:04:11.430Z,6.20
2019-02-22T14:06:41.621Z,5.20
2019-02-22T14:09:12.198Z,7.43
2019-02-22T14:11:42.830Z,4.37
2019-02-22T14:14:13.519Z,8.50
2019-02-22T14:16:43.790Z,7.17
2019-02-22T14:19:14.416Z,5.90
2019-02-22T14:21:44.684Z,6.57
2019-02-22T14:24:15.277Z,7.53
2019-02-22T14:26:46.663Z,8.57
2019-02-22T14:29:17.074Z,6.30
2019-02-22T14:31:48.416Z,8.67
2019-02-22T14:34:18.878Z,5.20
2019-02-22T14:36:52.338Z,3.53
2019-02-22T14:39:22.650Z,5.80
2019-02-22T14:41:52.983Z,5.10
2019-02-22T14:44:23.312Z,4.03
2019-02-22T14:46:54.872Z,6.93
2019-02-22T14:49:25.415Z,6.10
2019-02-22T14:51:55.823Z,5.63
2019-02-22T14:54:26.073Z,6.43
2019-02-22T14:56:56.588Z,8.37
2019-02-22T14:59:26.824Z,4.03
2019-02-22T15:01:57.095Z,9.67
2019-02-22T15:04:27.549Z,8.77
2019-02-22T15:06:58.023Z,4.83
2019-02-22T15:09:28.335Z,3.83
2019-02-22T15:11:58.751Z,3.77
2019-02-22T15:14:29.049Z,4.53
2019-02-22T15:17:18.826Z,7.47
2019-02-22T15:19:49.101Z,6.63
2019-02-22T15:22:19.864Z,7.53
2019-02-22T15:24:50.193Z,5.90
2019-02-22T15:27:20.818Z,5.37
2019-02-22T15:29:51.003Z,4.60
2019-02-22T15:32:22.657Z,5.10
2019-02-22T15:34:52.907Z,5.53
2019-02-22T15:37:23.625Z,5.27
2019-02-22T15:39:54.083Z,6.40
2019-02-22T15:42:25.283Z,3.13
2019-02-22T15:44:55.745Z,5.13
2019-02-22T15:47:26.119Z,8.77
2019-02-22T15:49:56.367Z,7.57
2019-02-22T15:52:26.763Z,10.43
2019-02-22T15:54:57.095Z,4.70
2019-02-22T15:57:27.515Z,9.73
2019-02-22T15:59:57.695Z,5.03
2019-02-22T16:02:27.906Z,6.83
2019-02-22T16:05:08.745Z,6.30
2019-02-22T16:07:44.716Z,5.40
2019-02-22T16:10:13.129Z,4.43
2019-02-22T16:12:43.511Z,5.90
2019-02-22T16:15:15.917Z,6.17
2019-02-22T16:17:47.160Z,5.43
2019-02-22T16:20:17.415Z,4.83
2019-02-22T16:22:47.672Z,10.33
2019-02-22T16:25:19.901Z,10.03
2019-02-22T16:27:49.753Z,6.23
2019-02-22T16:30:21.375Z,8.27
2019-02-22T16:32:56.987Z,7.47
2019-02-22T16:35:27.130Z,9.07
2019-02-22T16:37:58.045Z,6.33
2019-02-22T16:40:28.519Z,6.23
2019-02-22T16:42:59.145Z,12.70
2019-02-22T16:45:29.740Z,3.63
2019-02-22T16:48:00.300Z,7.87
2019-02-22T16:50:30.888Z,9.47
2019-02-22T16:53:01.645Z,13.10
2019-02-22T16:55:33.132Z,5.97
2019-02-22T16:58:03.648Z,7.33
2019-02-22T17:00:33.995Z,11.53
2019-02-22T17:03:04.718Z,6.50
2019-02-22T17:05:35.076Z,7.27
2019-02-22T17:08:05.760Z,8.17
2019-02-22T17:10:36.038Z,11.53
2019-02-22T17:13:06.476Z,11.00
2019-02-22T17:15:36.786Z,14.43
2019-02-22T17:18:09.136Z,7.50
2019-02-22T17:20:39.450Z,10.23
2019-02-22T17:23:09.710Z,7.00
2019-02-22T17:25:40.038Z,9.90
2019-02-22T17:28:10.362Z,12.93
2019-02-22T17:30:40.685Z,13.87
2019-02-22T17:33:10.935Z,12.13
2019-02-22T17:35:41.282Z,10.67
2019-02-22T17:38:11.534Z,9.33
2019-02-22T17:40:41.828Z,9.23
2019-02-22T17:43:12.073Z,9.93
2019-02-22T17:45:42.350Z,8.67
2019-02-22T17:48:12.620Z,8.60
2019-02-22T17:50:42.942Z,11.10
2019-02-22T17:53:13.199Z,9.93
2019-02-22T17:55:44.009Z,8.03
2019-02-22T17:58:23.949Z,10.37
2019-02-22T18:00:46.880Z,8.80
2019-02-22T18:03:17.460Z,8.20
2019-02-22T18:05:48.154Z,11.37
2019-02-22T18:08:18.774Z,6.70
2019-02-22T18:10:49.167Z,10.77
2019-02-22T18:13:19.838Z,11.60
2019-02-22T18:15:50.590Z,11.23
2019-02-22T18:18:22.465Z,16.03
2019-02-22T18:20:52.873Z,9.73
2019-02-22T18:23:23.388Z,10.13
2019-02-22T18:25:53.680Z,11.97
2019-02-22T18:28:23.943Z,14.97
2019-02-22T18:30:54.422Z,10.07
2019-02-22T18:33:24.089Z,11.30
2019-02-22T18:35:54.271Z,9.13
2019-02-22T18:38:24.793Z,14.20
2019-02-22T18:40:55.090Z,15.00
2019-02-22T18:43:26.211Z,10.47
2019-02-22T18:45:56.507Z,11.53
2019-02-22T18:48:27.259Z,15.17
2019-02-22T18:50:57.512Z,11.07
2019-02-22T18:53:27.967Z,9.33
2019-02-22T18:55:58.247Z,8.80
2019-02-22T18:58:29.320Z,8.47
2019-02-22T19:00:59.628Z,12.53
2019-02-22T19:03:30.175Z,9.67
2019-02-22T19:06:00.441Z,8.93
2019-02-22T19:08:32.662Z,15.10
2019-02-22T19:11:02.855Z,15.00
2019-02-22T19:13:33.417Z,12.40
2019-02-22T19:16:03.688Z,9.47
2019-02-22T19:18:34.031Z,9.33
2019-02-22T19:21:04.363Z,13.80
2019-02-22T19:23:34.726Z,14.20
2019-02-22T19:26:05.019Z,13.60
2019-02-22T19:28:35.309Z,15.30
2019-02-22T19:31:05.021Z,13.40
2019-02-22T19:33:35.235Z,11.50
2019-02-22T19:36:05.776Z,17.17
2019-02-22T19:38:36.064Z,12.17
2019-02-22T19:41:06.709Z,10.00
2019-02-22T19:43:37.015Z,12.00
2019-02-22T19:46:07.341Z,13.13
2019-02-22T19:48:37.691Z,14.77
2019-02-22T19:51:08.035Z,13.60
2019-02-22T19:53:38.347Z,17.53
2019-02-22T19:56:08.972Z,17.90
2019-02-22T19:58:39.212Z,14.27
2019-02-22T20:01:11.605Z,13.90
2019-02-22T20:03:41.608Z,21.23
2019-02-22T20:06:11.923Z,16.63
2019-02-22T20:08:42.366Z,17.13
2019-02-22T20:11:12.932Z,19.17
2019-02-22T20:13:43.376Z,11.17
2019-02-22T20:16:14.075Z,14.03
2019-02-22T20:18:45.698Z,14.33
2019-02-22T20:21:17.112Z,15.37
2019-02-22T20:23:47.459Z,11.33
2019-02-22T20:26:18.170Z,10.43
2019-02-22T20:28:48.538Z,11.20
2019-02-22T20:31:20.570Z,13.73
2019-02-22T20:33:52.010Z,11.97
2019-02-22T20:36:28.551Z,16.50
2019-02-22T20:38:54.399Z,14.83
2019-02-22T20:41:27.500Z,13.50
2019-02-22T20:43:58.062Z,14.33
2019-02-22T20:46:29.118Z,16.80
2019-02-22T20:49:01.158Z,14.87
2019-02-22T20:51:31.681Z,15.50
2019-02-22T20:54:02.116Z,15.50
2019-02-22T20:56:32.433Z,19.03
2019-02-22T20:59:02.750Z,16.10
2019-02-22T21:01:33.093Z,18.17
2019-02-22T21:04:03.384Z,17.63
2019-02-22T21:06:36.155Z,14.50
2019-02-22T21:09:07.514Z,19.83
2019-02-22T21:11:38.982Z,14.43
2019-02-22T21:14:09.732Z,11.77
2019-02-22T21:16:40.585Z,13.63
2019-02-22T21:19:11.122Z,20.63
2019-02-22T21:21:41.802Z,15.20
2019-02-22T21:24:12.274Z,17.60
2019-02-22T21:26:42.859Z,16.03
2019-02-22T21:29:13.246Z,17.90
2019-02-22T21:31:43.668Z,16.40
2019-02-22T21:34:14.613Z,14.30
2019-02-22T21:36:44.940Z,16.30
2019-02-22T21:39:15.517Z,16.03
2019-02-22T21:41:46.096Z,14.53
2019-02-22T21:44:16.498Z,15.50
2019-02-22T21:46:47.700Z,17.13
2019-02-22T21:49:18.020Z,12.80
2019-02-22T21:51:48.764Z,18.93
2019-02-22T21:54:20.592Z,15.50
2019-02-22T21:56:51.356Z,13.03
2019-02-22T21:59:21.957Z,15.83
2019-02-22T22:01:52.271Z,14.50
2019-02-22T22:04:22.543Z,13.60
2019-02-22T22:06:54.127Z,15.37
2019-02-22T22:09:24.624Z,17.87
2019-02-22T22:11:54.946Z,17.00
2019-02-22T22:14:25.505Z,13.77
2019-02-22T22:16:56.310Z,14.37
2019-02-22T22:19:26.563Z,15.20
2019-02-22T22:21:57.269Z,12.67
2019-02-22T22:24:27.529Z,18.23
2019-02-22T22:26:57.994Z,16.77
2019-02-22T22:29:28.332Z,15.30
2019-02-22T22:31:59.056Z,18.47
2019-02-22T22:34:29.781Z,16.17
2019-02-22T22:37:00.436Z,17.07
2019-02-22T22:39:30.740Z,12.93
2019-02-22T22:42:01.520Z,18.77
2019-02-22T22:44:32.115Z,16.57
2019-02-22T22:47:02.779Z,17.87
2019-02-22T22:49:33.311Z,16.80
2019-02-22T22:52:03.692Z,21.30
2019-02-22T22:54:34.069Z,15.20
2019-02-22T22:57:04.684Z,15.30
2019-02-22T22:59:36.111Z,19.50
2019-02-22T23:02:07.039Z,19.93
2019-02-22T23:04:37.839Z,16.97
2019-02-22T23:07:08.249Z,22.33
2019-02-22T23:09:38.800Z,14.80
2019-02-22T23:12:09.103Z,15.47
2019-02-22T23:14:39.417Z,19.57
2019-02-22T23:17:09.753Z,15.87
2019-02-22T23:19:40.046Z,17.83
2019-02-22T23:22:10.620Z,21.73
2019-02-22T23:24:40.877Z,15.80
2019-02-22T23:27:11.226Z,19.17
2019-02-22T23:29:41.493Z,14.47
2019-02-22T23:32:11.876Z,14.63
2019-02-22T23:34:42.161Z,16.27
2019-02-22T23:37:12.427Z,14.57
2019-02-22T23:39:42.684Z,15.27
2019-02-22T23:42:14.604Z,14.10
2019-02-22T23:44:44.894Z,16.87
2019-02-22T23:47:15.154Z,18.57
2019-02-22T23:49:45.762Z,12.87
2019-02-22T23:52:16.033Z,12.40
2019-02-22T23:54:46.511Z,15.20
2019-02-22T23:57:16.893Z,14.70
2019-02-22T23:59:47.576Z,16.20
